»·PEaware :: N992W KRDD-KSAC

N992W :: KRDD-KSAC

FLIGHT INFORMATION

Flight Status: Arrived
Operator: Privately registered:
United States
More flights under this callsign
Pilot: Padraig S. (14196)
Aircraft: PIPER PA-31/31P NAVAJO CHIEFTAIN
(PA31)
More flights by this aircraft type
Origin: KRDD Redding Mun
United States
Destination: KSAC Sacramento Executive
United States
More flights between these airports :: More routes between these airports
Route: +RBL V195 RAGGS V494 SAC
File this flight plan on PilotEdge
Remarks:
Altitude:
(Current/Filed)
8,500ft
Speed:
(Current/Filed)
200kts
Departed: 27-Jul-18 07:58 AM
Arrived: 27-Jul-18 08:54 AM
Distance/Time
Traveled:
125nm/0:55
Distance/Time
To Go:
Arrived

Flight Plot

Page will automatically refresh every two minutes.

Flight plan parsing failed; only flown route is shown


Map Options




Map Legend


Flown Route
Filed Route
Departure Airport
Arrival Airport
Navaid (VOR, NDB)
Fix

Horizontal Profiles

Position Reports

Time Latitude Longitude Heading Altitude Ground
Speed
27-Jul-18 07:41 40.509888 -122.298161 180 507ft 0kts
27-Jul-18 07:42 40.509888 -122.298161 180 507ft 0kts
27-Jul-18 07:43 40.509888 -122.298161 180 507ft 0kts
27-Jul-18 07:44 40.509888 -122.298161 179 507ft 0kts
27-Jul-18 07:45 40.509888 -122.298161 179 507ft 0kts
27-Jul-18 07:46 40.509888 -122.298161 179 507ft 0kts
27-Jul-18 07:47 40.509888 -122.298161 179 507ft 0kts
27-Jul-18 07:48 40.509888 -122.298161 179 507ft 0kts
27-Jul-18 07:49 40.509888 -122.298161 180 507ft 0kts
27-Jul-18 07:50 40.509888 -122.298161 180 507ft 0kts
27-Jul-18 07:51 40.507932 -122.298608 181 507ft 10kts
27-Jul-18 07:52 40.505318 -122.298362 174 507ft 9kts
27-Jul-18 07:53 40.502642 -122.296885 135 507ft 8kts
27-Jul-18 07:54 40.501355 -122.296166 101 507ft 0kts
27-Jul-18 07:55 40.501354 -122.296165 101 507ft 0kts
27-Jul-18 07:56 40.501355 -122.296166 101 507ft 0kts
27-Jul-18 07:57 40.501328 -122.295936 95 507ft 0kts
27-Jul-18 07:58 40.501688 -122.294884 1 507ft 8kts
27-Jul-18 07:59 40.528930 -122.292756 27 1372ft 126kts
27-Jul-18 08:00 40.518323 -122.262106 169 2897ft 140kts
27-Jul-18 08:01 40.477841 -122.255540 176 4162ft 150kts
27-Jul-18 08:02 40.434833 -122.257443 195 5457ft 161kts
27-Jul-18 08:03 40.393838 -122.272664 188 7027ft 152kts
27-Jul-18 08:04 40.348503 -122.272803 174 7620ft 175kts
27-Jul-18 08:05 40.299394 -122.263878 172 7624ft 180kts
27-Jul-18 08:06 40.249674 -122.256380 175 7646ft 181kts
27-Jul-18 08:07 40.199553 -122.250253 174 7647ft 181kts
27-Jul-18 08:08 40.149620 -122.243359 174 7648ft 181kts
27-Jul-18 08:09 40.099572 -122.236264 170 7647ft 181kts
27-Jul-18 08:10 40.054977 -122.213252 159 7656ft 180kts
27-Jul-18 08:11 40.008807 -122.188967 159 7656ft 179kts
27-Jul-18 08:12 39.962621 -122.164755 159 7656ft 179kts
27-Jul-18 08:13 39.916551 -122.140645 157 7657ft 179kts
27-Jul-18 08:14 39.872179 -122.117472 160 7659ft 187kts
27-Jul-18 08:15 39.823032 -122.091797 160 7658ft 192kts
27-Jul-18 08:16 39.773358 -122.065902 160 7658ft 193kts
27-Jul-18 08:17 39.723724 -122.040082 160 7658ft 193kts
27-Jul-18 08:18 39.673871 -122.014178 160 7658ft 193kts
27-Jul-18 08:19 39.622598 -122.003635 183 7659ft 190kts
27-Jul-18 08:20 39.569897 -122.005489 184 7658ft 190kts
27-Jul-18 08:21 39.516055 -122.007903 184 7658ft 196kts
27-Jul-18 08:22 39.461403 -122.010281 184 7660ft 196kts
27-Jul-18 08:23 39.407346 -122.012646 184 7661ft 193kts
27-Jul-18 08:24 39.353968 -122.014985 184 7663ft 191kts
27-Jul-18 08:25 39.301113 -122.017294 183 7661ft 190kts
27-Jul-18 08:26 39.248567 -122.019585 183 7659ft 188kts
27-Jul-18 08:27 39.196340 -122.021856 182 7657ft 187kts
27-Jul-18 08:28 39.144344 -122.024120 182 7657ft 187kts
27-Jul-18 08:29 39.092392 -122.026380 182 7657ft 187kts
27-Jul-18 08:30 39.040971 -122.034957 190 7657ft 187kts
27-Jul-18 08:31 38.989968 -122.047534 190 7662ft 187kts
27-Jul-18 08:32 38.938561 -122.060317 189 7668ft 189kts
27-Jul-18 08:33 38.886598 -122.073230 192 7675ft 196kts
27-Jul-18 08:34 38.838876 -122.085039 192 7675ft 196kts
27-Jul-18 08:35 38.785403 -122.098277 192 7672ft 195kts
27-Jul-18 08:36 38.732331 -122.111396 192 7670ft 194kts
27-Jul-18 08:37 38.679648 -122.124400 192 7668ft 192kts
27-Jul-18 08:38 38.627264 -122.137307 192 7668ft 192kts
27-Jul-18 08:39 38.574646 -122.148043 184 7668ft 192kts
27-Jul-18 08:40 38.521597 -122.152853 185 7667ft 192kts
27-Jul-18 08:41 38.476818 -122.124493 114 7668ft 200kts
27-Jul-18 08:42 38.470830 -122.053218 94 7669ft 203kts
27-Jul-18 08:43 38.467193 -121.981448 94 7670ft 203kts
27-Jul-18 08:44 38.463536 -121.910966 94 7470ft 190kts
27-Jul-18 08:45 38.461326 -121.843859 92 6645ft 188kts
27-Jul-18 08:46 38.459068 -121.777884 91 5916ft 184kts
27-Jul-18 08:47 38.455825 -121.712942 94 5165ft 184kts
27-Jul-18 08:48 38.452097 -121.648610 79 4533ft 176kts
27-Jul-18 08:49 38.470497 -121.592475 60 3831ft 152kts
27-Jul-18 08:50 38.491234 -121.545311 61 3115ft 151kts
27-Jul-18 08:51 38.511672 -121.498605 62 2500ft 150kts
27-Jul-18 08:52 38.540402 -121.492214 20 861ft 112kts
27-Jul-18 08:53 38.538328 -121.473466 199 646ft 110kts
27-Jul-18 08:54 38.516742 -121.491188 216 27ft 67kts
27-Jul-18 08:55 38.513546 -121.495113 271 27ft 0kts
27-Jul-18 08:56 38.513546 -121.495113 271 27ft 0kts
27-Jul-18 08:57 38.513556 -121.495484 271 27ft 11kts
27-Jul-18 08:58 38.513718 -121.497021 212 27ft 0kts

Navigation Log

Ident Type
Flight plan parsing failed, navigation log unavailable